sensor_id;sensor_type;location;lat;lon;timestamp;P1;durP1;ratioP1;P2;durP2;ratioP2
35306;SDS011;21420;52.196;21.416;2023-10-09T00:02:08;6.90;;;3.60;;
35306;SDS011;21420;52.196;21.416;2023-10-09T00:04:40;9.50;;;3.80;;
35306;SDS011;21420;52.196;21.416;2023-10-09T00:07:09;7.80;;;4.40;;
35306;SDS011;21420;52.196;21.416;2023-10-09T00:09:38;8.70;;;3.80;;
35306;SDS011;21420;52.196;21.416;2023-10-09T00:12:18;6.50;;;3.80;;
35306;SDS011;21420;52.196;21.416;2023-10-09T00:14:50;8.30;;;3.90;;
35306;SDS011;21420;52.196;21.416;2023-10-09T00:17:22;6.80;;;3.60;;
35306;SDS011;21420;52.196;21.416;2023-10-09T00:19:50;6.20;;;3.60;;
35306;SDS011;21420;52.196;21.416;2023-10-09T00:22:26;8.00;;;4.40;;
35306;SDS011;21420;52.196;21.416;2023-10-09T00:24:56;9.50;;;4.40;;
35306;SDS011;21420;52.196;21.416;2023-10-09T00:27:39;10.50;;;4.20;;
35306;SDS011;21420;52.196;21.416;2023-10-09T00:30:12;8.00;;;4.30;;
35306;SDS011;21420;52.196;21.416;2023-10-09T00:32:49;9.20;;;4.90;;
35306;SDS011;21420;52.196;21.416;2023-10-09T00:35:28;8.20;;;5.30;;
35306;SDS011;21420;52.196;21.416;2023-10-09T00:38:24;8.50;;;4.40;;
35306;SDS011;21420;52.196;21.416;2023-10-09T00:40:58;13.50;;;5.40;;
35306;SDS011;21420;52.196;21.416;2023-10-09T00:43:40;8.40;;;4.70;;
35306;SDS011;21420;52.196;21.416;2023-10-09T00:46:10;10.40;;;5.60;;
35306;SDS011;21420;52.196;21.416;2023-10-09T00:48:47;9.00;;;5.30;;
35306;SDS011;21420;52.196;21.416;2023-10-09T00:51:18;11.90;;;5.20;;
35306;SDS011;21420;52.196;21.416;2023-10-09T00:53:47;10.10;;;5.20;;
35306;SDS011;21420;52.196;21.416;2023-10-09T00:56:19;8.90;;;5.10;;
35306;SDS011;21420;52.196;21.416;2023-10-09T00:58:53;9.70;;;5.90;;
35306;SDS011;21420;52.196;21.416;2023-10-09T01:01:41;10.30;;;6.90;;
35306;SDS011;21420;52.196;21.416;2023-10-09T01:04:15;10.60;;;7.50;;
35306;SDS011;21420;52.196;21.416;2023-10-09T01:06:45;13.90;;;7.10;;
35306;SDS011;21420;52.196;21.416;2023-10-09T01:09:30;14.30;;;6.20;;
35306;SDS011;21420;52.196;21.416;2023-10-09T01:12:04;8.90;;;6.00;;
35306;SDS011;21420;52.196;21.416;2023-10-09T01:14:31;10.10;;;6.20;;
35306;SDS011;21420;52.196;21.416;2023-10-09T01:17:07;12.10;;;6.40;;
35306;SDS011;21420;52.196;21.416;2023-10-09T01:19:35;10.00;;;5.70;;
35306;SDS011;21420;52.196;21.416;2023-10-09T01:22:02;10.90;;;4.60;;
35306;SDS011;21420;52.196;21.416;2023-10-09T01:27:10;8.10;;;4.90;;
35306;SDS011;21420;52.196;21.416;2023-10-09T01:29:43;9.10;;;5.40;;
35306;SDS011;21420;52.196;21.416;2023-10-09T01:32:13;9.60;;;6.10;;
35306;SDS011;21420;52.196;21.416;2023-10-09T01:34:43;13.50;;;6.00;;
35306;SDS011;21420;52.196;21.416;2023-10-09T01:37:12;11.20;;;5.90;;
35306;SDS011;21420;52.196;21.416;2023-10-09T01:39:55;12.10;;;6.50;;
35306;SDS011;21420;52.196;21.416;2023-10-09T01:42:46;10.50;;;6.00;;
35306;SDS011;21420;52.196;21.416;2023-10-09T01:45:13;9.60;;;5.30;;
35306;SDS011;21420;52.196;21.416;2023-10-09T01:47:43;13.60;;;6.40;;
35306;SDS011;21420;52.196;21.416;2023-10-09T01:50:21;20.60;;;8.30;;
35306;SDS011;21420;52.196;21.416;2023-10-09T01:52:58;19.30;;;8.80;;
35306;SDS011;21420;52.196;21.416;2023-10-09T01:55:31;19.40;;;8.80;;
35306;SDS011;21420;52.196;21.416;2023-10-09T01:58:02;21.80;;;8.50;;
35306;SDS011;21420;52.196;21.416;2023-10-09T02:01:03;22.70;;;8.70;;
35306;SDS011;21420;52.196;21.416;2023-10-09T02:03:31;18.20;;;8.00;;
35306;SDS011;21420;52.196;21.416;2023-10-09T02:06:03;17.10;;;7.70;;
35306;SDS011;21420;52.196;21.416;2023-10-09T02:08:31;14.50;;;7.80;;
35306;SDS011;21420;52.196;21.416;2023-10-09T02:11:02;13.50;;;6.30;;
35306;SDS011;21420;52.196;21.416;2023-10-09T02:13:28;13.30;;;6.70;;
35306;SDS011;21420;52.196;21.416;2023-10-09T02:19:11;13.20;;;6.90;;
35306;SDS011;21420;52.196;21.416;2023-10-09T02:21:56;14.10;;;6.70;;
35306;SDS011;21420;52.196;21.416;2023-10-09T02:24:24;14.50;;;7.10;;
35306;SDS011;21420;52.196;21.416;2023-10-09T02:27:13;14.00;;;6.60;;
35306;SDS011;21420;52.196;21.416;2023-10-09T02:29:46;13.20;;;7.00;;
35306;SDS011;21420;52.196;21.416;2023-10-09T02:32:13;16.70;;;7.20;;
35306;SDS011;21420;52.196;21.416;2023-10-09T02:34:42;15.10;;;7.50;;
35306;SDS011;21420;52.196;21.416;2023-10-09T02:37:13;11.80;;;5.70;;
35306;SDS011;21420;52.196;21.416;2023-10-09T02:39:39;12.20;;;6.90;;
35306;SDS011;21420;52.196;21.416;2023-10-09T02:42:13;12.20;;;7.00;;
35306;SDS011;21420;52.196;21.416;2023-10-09T02:47:02;14.20;;;7.00;;
35306;SDS011;21420;52.196;21.416;2023-10-09T02:49:32;10.70;;;6.30;;
35306;SDS011;21420;52.196;21.416;2023-10-09T02:52:00;13.60;;;7.70;;
35306;SDS011;21420;52.196;21.416;2023-10-09T02:54:33;13.50;;;7.50;;
35306;SDS011;21420;52.196;21.416;2023-10-09T02:57:08;16.60;;;8.10;;
35306;SDS011;21420;52.196;21.416;2023-10-09T02:59:42;13.40;;;7.70;;
35306;SDS011;21420;52.196;21.416;2023-10-09T03:02:11;15.90;;;8.90;;
35306;SDS011;21420;52.196;21.416;2023-10-09T03:04:38;16.40;;;9.00;;
35306;SDS011;21420;52.196;21.416;2023-10-09T03:07:08;16.20;;;9.30;;
35306;SDS011;21420;52.196;21.416;2023-10-09T03:09:37;14.30;;;8.40;;
35306;SDS011;21420;52.196;21.416;2023-10-09T03:12:04;13.20;;;7.70;;
35306;SDS011;21420;52.196;21.416;2023-10-09T03:14:37;11.40;;;6.80;;
35306;SDS011;21420;52.196;21.416;2023-10-09T03:17:08;10.70;;;6.20;;
35306;SDS011;21420;52.196;21.416;2023-10-09T03:19:39;15.40;;;7.20;;
35306;SDS011;21420;52.196;21.416;2023-10-09T03:22:06;13.70;;;6.80;;
35306;SDS011;21420;52.196;21.416;2023-10-09T03:24:38;12.40;;;7.60;;
35306;SDS011;21420;52.196;21.416;2023-10-09T03:27:05;12.10;;;6.70;;
35306;SDS011;21420;52.196;21.416;2023-10-09T03:29:32;12.70;;;6.50;;
35306;SDS011;21420;52.196;21.416;2023-10-09T03:32:00;10.40;;;6.50;;
35306;SDS011;21420;52.196;21.416;2023-10-09T03:34:26;12.40;;;6.50;;
35306;SDS011;21420;52.196;21.416;2023-10-09T03:36:54;11.50;;;6.20;;
35306;SDS011;21420;52.196;21.416;2023-10-09T03:39:47;12.60;;;6.50;;
35306;SDS011;21420;52.196;21.416;2023-10-09T03:42:14;12.70;;;6.30;;
35306;SDS011;21420;52.196;21.416;2023-10-09T03:44:49;11.60;;;5.50;;
35306;SDS011;21420;52.196;21.416;2023-10-09T03:47:20;9.20;;;6.00;;
35306;SDS011;21420;52.196;21.416;2023-10-09T03:49:51;10.60;;;5.80;;
35306;SDS011;21420;52.196;21.416;2023-10-09T03:52:19;10.60;;;5.50;;
35306;SDS011;21420;52.196;21.416;2023-10-09T03:54:46;9.10;;;6.10;;
35306;SDS011;21420;52.196;21.416;2023-10-09T03:57:13;8.30;;;5.20;;
35306;SDS011;21420;52.196;21.416;2023-10-09T03:59:45;10.00;;;5.40;;
35306;SDS011;21420;52.196;21.416;2023-10-09T04:02:13;9.20;;;5.30;;
35306;SDS011;21420;52.196;21.416;2023-10-09T04:04:42;15.10;;;6.20;;
35306;SDS011;21420;52.196;21.416;2023-10-09T04:07:14;9.30;;;5.40;;
35306;SDS011;21420;52.196;21.416;2023-10-09T04:12:36;7.90;;;5.00;;
35306;SDS011;21420;52.196;21.416;2023-10-09T04:15:06;9.50;;;5.30;;
35306;SDS011;21420;52.196;21.416;2023-10-09T04:17:41;9.90;;;5.60;;
35306;SDS011;21420;52.196;21.416;2023-10-09T04:20:10;11.50;;;5.90;;
35306;SDS011;21420;52.196;21.416;2023-10-09T04:22:45;11.30;;;6.10;;
35306;SDS011;21420;52.196;21.416;2023-10-09T04:25:26;10.40;;;6.20;;
35306;SDS011;21420;52.196;21.416;2023-10-09T04:27:55;10.00;;;5.70;;
35306;SDS011;21420;52.196;21.416;2023-10-09T04:30:46;11.80;;;6.80;;
35306;SDS011;21420;52.196;21.416;2023-10-09T04:33:20;11.50;;;6.50;;
35306;SDS011;21420;52.196;21.416;2023-10-09T04:36:03;11.80;;;6.40;;
35306;SDS011;21420;52.196;21.416;2023-10-09T04:38:46;10.90;;;5.90;;
35306;SDS011;21420;52.196;21.416;2023-10-09T04:41:46;7.60;;;4.80;;
35306;SDS011;21420;52.196;21.416;2023-10-09T04:44:12;9.50;;;5.40;;
35306;SDS011;21420;52.196;21.416;2023-10-09T04:46:46;10.40;;;5.50;;
35306;SDS011;21420;52.196;21.416;2023-10-09T04:49:32;11.40;;;5.50;;
35306;SDS011;21420;52.196;21.416;2023-10-09T04:52:29;11.10;;;5.30;;
35306;SDS011;21420;52.196;21.416;2023-10-09T04:54:57;8.40;;;4.60;;
35306;SDS011;21420;52.196;21.416;2023-10-09T04:57:33;10.20;;;5.10;;
35306;SDS011;21420;52.196;21.416;2023-10-09T05:00:05;8.60;;;4.90;;
35306;SDS011;21420;52.196;21.416;2023-10-09T05:02:33;7.40;;;4.70;;
35306;SDS011;21420;52.196;21.416;2023-10-09T05:05:03;8.60;;;5.40;;
35306;SDS011;21420;52.196;21.416;2023-10-09T05:08:03;10.60;;;5.40;;
35306;SDS011;21420;52.196;21.416;2023-10-09T05:10:49;10.60;;;5.80;;
35306;SDS011;21420;52.196;21.416;2023-10-09T05:13:31;8.70;;;5.20;;
35306;SDS011;21420;52.196;21.416;2023-10-09T05:18:42;11.10;;;5.20;;
35306;SDS011;21420;52.196;21.416;2023-10-09T05:21:12;11.50;;;4.90;;
35306;SDS011;21420;52.196;21.416;2023-10-09T05:23:42;9.40;;;5.00;;
35306;SDS011;21420;52.196;21.416;2023-10-09T05:26:15;8.00;;;5.10;;
35306;SDS011;21420;52.196;21.416;2023-10-09T05:29:00;9.10;;;4.80;;
35306;SDS011;21420;52.196;21.416;2023-10-09T05:31:36;9.00;;;4.80;;
35306;SDS011;21420;52.196;21.416;2023-10-09T05:34:23;10.20;;;5.50;;
35306;SDS011;21420;52.196;21.416;2023-10-09T05:37:01;10.10;;;5.50;;
35306;SDS011;21420;52.196;21.416;2023-10-09T05:39:49;9.50;;;5.30;;
35306;SDS011;21420;52.196;21.416;2023-10-09T05:42:28;12.90;;;5.40;;
35306;SDS011;21420;52.196;21.416;2023-10-09T05:45:09;10.40;;;6.00;;
35306;SDS011;21420;52.196;21.416;2023-10-09T05:47:59;8.70;;;5.30;;
35306;SDS011;21420;52.196;21.416;2023-10-09T05:50:51;11.30;;;5.80;;
35306;SDS011;21420;52.196;21.416;2023-10-09T05:53:38;10.10;;;5.40;;
35306;SDS011;21420;52.196;21.416;2023-10-09T05:56:12;11.10;;;6.20;;
35306;SDS011;21420;52.196;21.416;2023-10-09T05:58:58;11.80;;;6.80;;
35306;SDS011;21420;52.196;21.416;2023-10-09T06:01:43;17.40;;;8.00;;
35306;SDS011;21420;52.196;21.416;2023-10-09T06:04:25;11.60;;;7.20;;
35306;SDS011;21420;52.196;21.416;2023-10-09T06:07:11;9.80;;;6.70;;
35306;SDS011;21420;52.196;21.416;2023-10-09T06:09:39;11.10;;;7.20;;
35306;SDS011;21420;52.196;21.416;2023-10-09T06:12:37;11.80;;;7.20;;
35306;SDS011;21420;52.196;21.416;2023-10-09T06:15:10;14.70;;;8.60;;
35306;SDS011;21420;52.196;21.416;2023-10-09T06:17:58;16.80;;;10.10;;
35306;SDS011;21420;52.196;21.416;2023-10-09T06:20:44;13.90;;;9.00;;
35306;SDS011;21420;52.196;21.416;2023-10-09T06:23:30;13.40;;;8.70;;
35306;SDS011;21420;52.196;21.416;2023-10-09T06:26:32;9.60;;;6.80;;
35306;SDS011;21420;52.196;21.416;2023-10-09T06:28:59;10.10;;;7.10;;
35306;SDS011;21420;52.196;21.416;2023-10-09T06:31:42;11.80;;;7.60;;
35306;SDS011;21420;52.196;21.416;2023-10-09T06:34:27;10.30;;;7.20;;
35306;SDS011;21420;52.196;21.416;2023-10-09T06:37:01;11.60;;;7.10;;
35306;SDS011;21420;52.196;21.416;2023-10-09T06:39:46;11.70;;;6.50;;
35306;SDS011;21420;52.196;21.416;2023-10-09T06:42:22;10.40;;;6.10;;
35306;SDS011;21420;52.196;21.416;2023-10-09T06:45:07;12.40;;;6.30;;
35306;SDS011;21420;52.196;21.416;2023-10-09T06:47:46;9.50;;;6.00;;
35306;SDS011;21420;52.196;21.416;2023-10-09T06:50:23;11.10;;;6.10;;
35306;SDS011;21420;52.196;21.416;2023-10-09T06:52:51;13.60;;;6.70;;
35306;SDS011;21420;52.196;21.416;2023-10-09T06:55:37;10.20;;;5.90;;
35306;SDS011;21420;52.196;21.416;2023-10-09T06:58:32;11.00;;;6.90;;
35306;SDS011;21420;52.196;21.416;2023-10-09T07:01:14;9.20;;;5.80;;
35306;SDS011;21420;52.196;21.416;2023-10-09T07:04:00;14.20;;;6.20;;
35306;SDS011;21420;52.196;21.416;2023-10-09T07:06:37;12.50;;;5.80;;
35306;SDS011;21420;52.196;21.416;2023-10-09T07:09:04;9.20;;;5.30;;
35306;SDS011;21420;52.196;21.416;2023-10-09T07:14:08;8.90;;;5.90;;
35306;SDS011;21420;52.196;21.416;2023-10-09T07:16:51;8.70;;;5.20;;
35306;SDS011;21420;52.196;21.416;2023-10-09T07:19:25;9.40;;;5.90;;
35306;SDS011;21420;52.196;21.416;2023-10-09T07:22:01;9.20;;;5.60;;
35306;SDS011;21420;52.196;21.416;2023-10-09T07:24:42;9.30;;;5.40;;
35306;SDS011;21420;52.196;21.416;2023-10-09T07:27:16;7.80;;;5.40;;
35306;SDS011;21420;52.196;21.416;2023-10-09T07:29:44;9.10;;;5.30;;
35306;SDS011;21420;52.196;21.416;2023-10-09T07:34:48;8.70;;;5.60;;
35306;SDS011;21420;52.196;21.416;2023-10-09T07:37:26;11.70;;;5.30;;
35306;SDS011;21420;52.196;21.416;2023-10-09T07:40:04;7.20;;;4.70;;
35306;SDS011;21420;52.196;21.416;2023-10-09T07:42:33;11.80;;;4.80;;
35306;SDS011;21420;52.196;21.416;2023-10-09T07:45:03;9.70;;;5.60;;
35306;SDS011;21420;52.196;21.416;2023-10-09T07:47:59;11.40;;;6.90;;
35306;SDS011;21420;52.196;21.416;2023-10-09T07:50:29;10.20;;;6.40;;
35306;SDS011;21420;52.196;21.416;2023-10-09T07:53:07;8.50;;;5.60;;
35306;SDS011;21420;52.196;21.416;2023-10-09T07:56:06;7.10;;;5.30;;
35306;SDS011;21420;52.196;21.416;2023-10-09T07:58:33;8.60;;;5.90;;
35306;SDS011;21420;52.196;21.416;2023-10-09T08:01:14;9.60;;;5.40;;
35306;SDS011;21420;52.196;21.416;2023-10-09T08:04:01;8.50;;;5.40;;
35306;SDS011;21420;52.196;21.416;2023-10-09T08:09:05;14.80;;;7.70;;
35306;SDS011;21420;52.196;21.416;2023-10-09T08:11:48;10.10;;;6.20;;
35306;SDS011;21420;52.196;21.416;2023-10-09T08:14:34;16.10;;;6.20;;
35306;SDS011;21420;52.196;21.416;2023-10-09T08:17:01;9.70;;;6.60;;
35306;SDS011;21420;52.196;21.416;2023-10-09T08:19:48;95.40;;;66.70;;
35306;SDS011;21420;52.196;21.416;2023-10-09T08:24:56;13.00;;;5.80;;
35306;SDS011;21420;52.196;21.416;2023-10-09T08:27:27;6.70;;;4.80;;
35306;SDS011;21420;52.196;21.416;2023-10-09T08:30:02;13.70;;;9.10;;
35306;SDS011;21420;52.196;21.416;2023-10-09T08:32:45;6.20;;;4.00;;
35306;SDS011;21420;52.196;21.416;2023-10-09T08:35:33;48.60;;;19.40;;
35306;SDS011;21420;52.196;21.416;2023-10-09T08:40:53;7.40;;;4.40;;
35306;SDS011;21420;52.196;21.416;2023-10-09T08:43:25;23.70;;;10.50;;
35306;SDS011;21420;52.196;21.416;2023-10-09T08:45:56;9.00;;;4.80;;
35306;SDS011;21420;52.196;21.416;2023-10-09T08:48:29;6.90;;;4.00;;
35306;SDS011;21420;52.196;21.416;2023-10-09T08:50:59;10.30;;;7.20;;
35306;SDS011;21420;52.196;21.416;2023-10-09T08:53:31;7.80;;;3.80;;
35306;SDS011;21420;52.196;21.416;2023-10-09T08:56:01;6.60;;;4.10;;
35306;SDS011;21420;52.196;21.416;2023-10-09T08:58:31;7.20;;;4.30;;
35306;SDS011;21420;52.196;21.416;2023-10-09T09:01:03;6.30;;;2.80;;
35306;SDS011;21420;52.196;21.416;2023-10-09T09:03:38;4.40;;;2.70;;
35306;SDS011;21420;52.196;21.416;2023-10-09T09:06:05;3.90;;;2.10;;
35306;SDS011;21420;52.196;21.416;2023-10-09T09:08:33;4.80;;;3.00;;
35306;SDS011;21420;52.196;21.416;2023-10-09T09:11:04;6.30;;;2.90;;
35306;SDS011;21420;52.196;21.416;2023-10-09T09:13:44;5.00;;;3.40;;
35306;SDS011;21420;52.196;21.416;2023-10-09T09:16:19;4.80;;;2.50;;
35306;SDS011;21420;52.196;21.416;2023-10-09T09:18:57;3.50;;;2.40;;
35306;SDS011;21420;52.196;21.416;2023-10-09T09:21:41;5.20;;;2.30;;
35306;SDS011;21420;52.196;21.416;2023-10-09T09:24:11;4.10;;;2.60;;
35306;SDS011;21420;52.196;21.416;2023-10-09T09:26:54;11.20;;;3.30;;
35306;SDS011;21420;52.196;21.416;2023-10-09T09:29:45;3.80;;;2.80;;
35306;SDS011;21420;52.196;21.416;2023-10-09T09:32:28;5.10;;;3.20;;
35306;SDS011;21420;52.196;21.416;2023-10-09T09:35:02;4.80;;;2.80;;
35306;SDS011;21420;52.196;21.416;2023-10-09T09:40:08;3.80;;;2.20;;
35306;SDS011;21420;52.196;21.416;2023-10-09T09:43:00;2.70;;;1.90;;
35306;SDS011;21420;52.196;21.416;2023-10-09T09:45:38;3.70;;;2.20;;
35306;SDS011;21420;52.196;21.416;2023-10-09T09:48:12;4.00;;;2.40;;
35306;SDS011;21420;52.196;21.416;2023-10-09T09:50:42;6.50;;;4.70;;
35306;SDS011;21420;52.196;21.416;2023-10-09T09:53:11;10.40;;;4.10;;
35306;SDS011;21420;52.196;21.416;2023-10-09T09:55:46;4.70;;;2.80;;
35306;SDS011;21420;52.196;21.416;2023-10-09T09:58:26;7.10;;;3.30;;
35306;SDS011;21420;52.196;21.416;2023-10-09T10:01:09;4.00;;;3.10;;
35306;SDS011;21420;52.196;21.416;2023-10-09T10:03:54;4.70;;;2.40;;
35306;SDS011;21420;52.196;21.416;2023-10-09T10:06:24;2.70;;;1.80;;
35306;SDS011;21420;52.196;21.416;2023-10-09T10:08:53;6.90;;;5.10;;
35306;SDS011;21420;52.196;21.416;2023-10-09T10:14:14;3.20;;;2.10;;
35306;SDS011;21420;52.196;21.416;2023-10-09T10:17:01;4.70;;;2.10;;
35306;SDS011;21420;52.196;21.416;2023-10-09T10:22:40;2.20;;;1.80;;
35306;SDS011;21420;52.196;21.416;2023-10-09T10:28:15;3.40;;;2.60;;
35306;SDS011;21420;52.196;21.416;2023-10-09T10:30:45;4.90;;;2.10;;
35306;SDS011;21420;52.196;21.416;2023-10-09T10:33:12;3.70;;;1.90;;
35306;SDS011;21420;52.196;21.416;2023-10-09T10:35:43;2.90;;;2.10;;
35306;SDS011;21420;52.196;21.416;2023-10-09T10:41:14;2.50;;;1.70;;
35306;SDS011;21420;52.196;21.416;2023-10-09T10:43:48;3.00;;;1.80;;
35306;SDS011;21420;52.196;21.416;2023-10-09T10:46:21;2.90;;;1.80;;
35306;SDS011;21420;52.196;21.416;2023-10-09T10:49:06;1.80;;;1.40;;
35306;SDS011;21420;52.196;21.416;2023-10-09T10:51:40;4.20;;;1.90;;
35306;SDS011;21420;52.196;21.416;2023-10-09T10:54:10;3.90;;;3.00;;
35306;SDS011;21420;52.196;21.416;2023-10-09T10:57:03;3.10;;;1.70;;
35306;SDS011;21420;52.196;21.416;2023-10-09T10:59:46;7.90;;;5.00;;
35306;SDS011;21420;52.196;21.416;2023-10-09T11:02:16;10.70;;;4.60;;
35306;SDS011;21420;52.196;21.416;2023-10-09T11:04:54;4.80;;;2.60;;
35306;SDS011;21420;52.196;21.416;2023-10-09T11:07:22;5.90;;;2.20;;
35306;SDS011;21420;52.196;21.416;2023-10-09T11:15:09;3.60;;;2.00;;
35306;SDS011;21420;52.196;21.416;2023-10-09T11:20:39;4.10;;;2.40;;
35306;SDS011;21420;52.196;21.416;2023-10-09T11:23:20;5.80;;;2.60;;
35306;SDS011;21420;52.196;21.416;2023-10-09T11:25:56;6.40;;;2.40;;
35306;SDS011;21420;52.196;21.416;2023-10-09T11:28:43;6.20;;;1.80;;
35306;SDS011;21420;52.196;21.416;2023-10-09T11:31:15;4.60;;;1.80;;
35306;SDS011;21420;52.196;21.416;2023-10-09T11:34:01;3.60;;;2.00;;
35306;SDS011;21420;52.196;21.416;2023-10-09T11:36:28;2.90;;;2.20;;
35306;SDS011;21420;52.196;21.416;2023-10-09T11:39:01;3.70;;;2.70;;
35306;SDS011;21420;52.196;21.416;2023-10-09T11:41:45;5.60;;;2.60;;
35306;SDS011;21420;52.196;21.416;2023-10-09T11:44:15;4.70;;;2.40;;
35306;SDS011;21420;52.196;21.416;2023-10-09T11:46:58;7.20;;;2.70;;
35306;SDS011;21420;52.196;21.416;2023-10-09T11:52:58;4.00;;;2.10;;
35306;SDS011;21420;52.196;21.416;2023-10-09T11:55:44;5.50;;;2.10;;
35306;SDS011;21420;52.196;21.416;2023-10-09T11:58:19;3.30;;;2.20;;
35306;SDS011;21420;52.196;21.416;2023-10-09T12:00:51;5.10;;;3.00;;
35306;SDS011;21420;52.196;21.416;2023-10-09T12:03:24;5.10;;;2.30;;
35306;SDS011;21420;52.196;21.416;2023-10-09T12:05:56;5.30;;;2.90;;
35306;SDS011;21420;52.196;21.416;2023-10-09T12:08:41;3.00;;;2.40;;
35306;SDS011;21420;52.196;21.416;2023-10-09T12:11:07;5.20;;;2.80;;
35306;SDS011;21420;52.196;21.416;2023-10-09T12:13:36;6.10;;;3.70;;
35306;SDS011;21420;52.196;21.416;2023-10-09T12:16:10;5.20;;;3.10;;
35306;SDS011;21420;52.196;21.416;2023-10-09T12:18:37;5.90;;;3.40;;
35306;SDS011;21420;52.196;21.416;2023-10-09T12:21:06;4.70;;;3.10;;
35306;SDS011;21420;52.196;21.416;2023-10-09T12:23:33;4.40;;;2.60;;
35306;SDS011;21420;52.196;21.416;2023-10-09T12:26:02;5.20;;;3.00;;
35306;SDS011;21420;52.196;21.416;2023-10-09T12:28:30;7.70;;;4.30;;
35306;SDS011;21420;52.196;21.416;2023-10-09T12:30:59;7.40;;;4.50;;
35306;SDS011;21420;52.196;21.416;2023-10-09T12:33:29;7.60;;;4.40;;
35306;SDS011;21420;52.196;21.416;2023-10-09T12:35:57;6.00;;;4.10;;
35306;SDS011;21420;52.196;21.416;2023-10-09T12:38:28;8.50;;;4.00;;
35306;SDS011;21420;52.196;21.416;2023-10-09T12:41:05;7.70;;;3.60;;
35306;SDS011;21420;52.196;21.416;2023-10-09T12:43:54;6.10;;;3.50;;
35306;SDS011;21420;52.196;21.416;2023-10-09T12:46:25;7.70;;;3.60;;
35306;SDS011;21420;52.196;21.416;2023-10-09T12:48:52;4.90;;;3.00;;
35306;SDS011;21420;52.196;21.416;2023-10-09T12:51:22;5.90;;;3.30;;
35306;SDS011;21420;52.196;21.416;2023-10-09T12:53:57;5.40;;;3.20;;
35306;SDS011;21420;52.196;21.416;2023-10-09T12:56:24;4.90;;;3.20;;
35306;SDS011;21420;52.196;21.416;2023-10-09T12:59:04;7.20;;;4.50;;
35306;SDS011;21420;52.196;21.416;2023-10-09T13:01:33;6.20;;;3.30;;
35306;SDS011;21420;52.196;21.416;2023-10-09T13:04:10;6.20;;;3.80;;
35306;SDS011;21420;52.196;21.416;2023-10-09T13:06:38;7.40;;;3.10;;
35306;SDS011;21420;52.196;21.416;2023-10-09T13:09:15;8.00;;;3.10;;
35306;SDS011;21420;52.196;21.416;2023-10-09T13:11:51;8.00;;;3.10;;
35306;SDS011;21420;52.196;21.416;2023-10-09T13:14:18;5.40;;;2.70;;
35306;SDS011;21420;52.196;21.416;2023-10-09T13:16:48;4.70;;;3.30;;
35306;SDS011;21420;52.196;21.416;2023-10-09T13:19:21;5.10;;;3.10;;
35306;SDS011;21420;52.196;21.416;2023-10-09T13:21:51;5.10;;;2.80;;
35306;SDS011;21420;52.196;21.416;2023-10-09T13:24:17;4.90;;;3.20;;
35306;SDS011;21420;52.196;21.416;2023-10-09T13:31:51;6.30;;;3.40;;
35306;SDS011;21420;52.196;21.416;2023-10-09T13:34:25;6.90;;;3.60;;
35306;SDS011;21420;52.196;21.416;2023-10-09T13:36:55;5.10;;;3.30;;
35306;SDS011;21420;52.196;21.416;2023-10-09T13:39:25;5.00;;;3.30;;
35306;SDS011;21420;52.196;21.416;2023-10-09T13:41:54;6.60;;;3.30;;
35306;SDS011;21420;52.196;21.416;2023-10-09T13:44:33;5.10;;;3.70;;
35306;SDS011;21420;52.196;21.416;2023-10-09T13:47:01;5.50;;;3.70;;
35306;SDS011;21420;52.196;21.416;2023-10-09T13:49:32;7.00;;;3.70;;
35306;SDS011;21420;52.196;21.416;2023-10-09T13:52:01;7.30;;;3.00;;
35306;SDS011;21420;52.196;21.416;2023-10-09T13:54:29;4.30;;;2.80;;
35306;SDS011;21420;52.196;21.416;2023-10-09T13:57:00;7.00;;;3.80;;
35306;SDS011;21420;52.196;21.416;2023-10-09T13:59:30;6.40;;;3.50;;
35306;SDS011;21420;52.196;21.416;2023-10-09T14:02:10;5.50;;;3.80;;
35306;SDS011;21420;52.196;21.416;2023-10-09T14:04:44;5.60;;;3.80;;
35306;SDS011;21420;52.196;21.416;2023-10-09T14:07:15;6.70;;;4.20;;
35306;SDS011;21420;52.196;21.416;2023-10-09T14:09:43;7.70;;;4.20;;
35306;SDS011;21420;52.196;21.416;2023-10-09T14:12:11;6.70;;;3.90;;
35306;SDS011;21420;52.196;21.416;2023-10-09T14:14:44;8.20;;;4.70;;
35306;SDS011;21420;52.196;21.416;2023-10-09T14:17:15;6.80;;;4.30;;
35306;SDS011;21420;52.196;21.416;2023-10-09T14:19:50;9.40;;;4.10;;
35306;SDS011;21420;52.196;21.416;2023-10-09T14:22:18;7.90;;;4.20;;
35306;SDS011;21420;52.196;21.416;2023-10-09T14:24:56;8.40;;;4.70;;
35306;SDS011;21420;52.196;21.416;2023-10-09T14:27:23;10.00;;;4.40;;
35306;SDS011;21420;52.196;21.416;2023-10-09T14:29:54;9.20;;;4.10;;
35306;SDS011;21420;52.196;21.416;2023-10-09T14:32:28;14.30;;;5.10;;
35306;SDS011;21420;52.196;21.416;2023-10-09T14:35:09;5.80;;;4.10;;
35306;SDS011;21420;52.196;21.416;2023-10-09T14:37:40;9.10;;;4.10;;
35306;SDS011;21420;52.196;21.416;2023-10-09T14:40:08;6.20;;;4.70;;
35306;SDS011;21420;52.196;21.416;2023-10-09T14:42:48;7.00;;;4.50;;
35306;SDS011;21420;52.196;21.416;2023-10-09T14:45:23;5.80;;;4.50;;
35306;SDS011;21420;52.196;21.416;2023-10-09T14:47:53;8.90;;;4.40;;
35306;SDS011;21420;52.196;21.416;2023-10-09T14:50:21;8.30;;;4.20;;
35306;SDS011;21420;52.196;21.416;2023-10-09T14:55:18;8.10;;;4.30;;
35306;SDS011;21420;52.196;21.416;2023-10-09T14:57:48;8.30;;;4.90;;
35306;SDS011;21420;52.196;21.416;2023-10-09T15:00:16;9.40;;;5.60;;
35306;SDS011;21420;52.196;21.416;2023-10-09T15:02:50;7.00;;;5.40;;
35306;SDS011;21420;52.196;21.416;2023-10-09T15:05:19;7.30;;;4.60;;
35306;SDS011;21420;52.196;21.416;2023-10-09T15:07:46;7.90;;;5.00;;
35306;SDS011;21420;52.196;21.416;2023-10-09T15:10:13;8.20;;;5.00;;
35306;SDS011;21420;52.196;21.416;2023-10-09T15:12:44;10.00;;;5.20;;
35306;SDS011;21420;52.196;21.416;2023-10-09T15:15:13;9.60;;;5.10;;
35306;SDS011;21420;52.196;21.416;2023-10-09T15:17:41;11.00;;;4.80;;
35306;SDS011;21420;52.196;21.416;2023-10-09T15:20:21;9.40;;;5.10;;
35306;SDS011;21420;52.196;21.416;2023-10-09T15:22:48;8.30;;;4.90;;
35306;SDS011;21420;52.196;21.416;2023-10-09T15:25:15;8.10;;;4.60;;
35306;SDS011;21420;52.196;21.416;2023-10-09T15:27:44;9.60;;;4.90;;
35306;SDS011;21420;52.196;21.416;2023-10-09T15:30:11;8.80;;;4.90;;
35306;SDS011;21420;52.196;21.416;2023-10-09T15:32:40;11.00;;;5.20;;
35306;SDS011;21420;52.196;21.416;2023-10-09T15:35:08;7.80;;;5.20;;
35306;SDS011;21420;52.196;21.416;2023-10-09T15:37:41;9.20;;;5.40;;
35306;SDS011;21420;52.196;21.416;2023-10-09T15:40:09;7.50;;;5.30;;
35306;SDS011;21420;52.196;21.416;2023-10-09T15:42:45;11.90;;;5.40;;
35306;SDS011;21420;52.196;21.416;2023-10-09T15:45:22;15.10;;;5.90;;
35306;SDS011;21420;52.196;21.416;2023-10-09T15:47:49;8.40;;;5.00;;
35306;SDS011;21420;52.196;21.416;2023-10-09T15:50:18;11.00;;;5.50;;
35306;SDS011;21420;52.196;21.416;2023-10-09T15:52:45;9.90;;;6.20;;
35306;SDS011;21420;52.196;21.416;2023-10-09T15:55:16;17.00;;;10.20;;
35306;SDS011;21420;52.196;21.416;2023-10-09T15:57:47;28.40;;;14.50;;
35306;SDS011;21420;52.196;21.416;2023-10-09T16:00:19;91.90;;;33.20;;
35306;SDS011;21420;52.196;21.416;2023-10-09T16:02:47;99.50;;;39.20;;
35306;SDS011;21420;52.196;21.416;2023-10-09T16:05:15;115.20;;;49.20;;
35306;SDS011;21420;52.196;21.416;2023-10-09T16:07:43;81.10;;;36.10;;
35306;SDS011;21420;52.196;21.416;2023-10-09T16:10:10;84.60;;;38.40;;
35306;SDS011;21420;52.196;21.416;2023-10-09T16:12:39;88.20;;;41.00;;